sensor_id;sensor_type;location;lat;lon;timestamp;P1;durP1;ratioP1;P2;durP2;ratioP2
26050;SDS011;13825;53.496;10.020;2023-01-05T00:00:19;7.53;;;2.57;;
26050;SDS011;13825;53.496;10.020;2023-01-05T00:02:47;6.17;;;2.13;;
26050;SDS011;13825;53.496;10.020;2023-01-05T00:05:16;8.63;;;2.00;;
26050;SDS011;13825;53.496;10.020;2023-01-05T00:07:47;11.20;;;1.83;;
26050;SDS011;13825;53.496;10.020;2023-01-05T00:10:20;10.43;;;2.17;;
26050;SDS011;13825;53.496;10.020;2023-01-05T00:13:05;14.33;;;2.50;;
26050;SDS011;13825;53.496;10.020;2023-01-05T00:15:49;6.53;;;1.90;;
26050;SDS011;13825;53.496;10.020;2023-01-05T00:18:33;8.13;;;2.13;;
26050;SDS011;13825;53.496;10.020;2023-01-05T00:21:17;7.67;;;2.17;;
26050;SDS011;13825;53.496;10.020;2023-01-05T00:24:03;10.47;;;2.20;;
26050;SDS011;13825;53.496;10.020;2023-01-05T00:26:30;6.50;;;2.20;;
26050;SDS011;13825;53.496;10.020;2023-01-05T00:28:57;5.33;;;1.93;;
26050;SDS011;13825;53.496;10.020;2023-01-05T00:31:24;8.67;;;2.10;;
26050;SDS011;13825;53.496;10.020;2023-01-05T00:33:51;6.00;;;1.77;;
26050;SDS011;13825;53.496;10.020;2023-01-05T00:36:21;5.60;;;1.70;;
26050;SDS011;13825;53.496;10.020;2023-01-05T00:38:48;4.00;;;1.53;;
26050;SDS011;13825;53.496;10.020;2023-01-05T00:41:16;13.57;;;1.83;;
26050;SDS011;13825;53.496;10.020;2023-01-05T00:43:43;4.87;;;1.70;;
26050;SDS011;13825;53.496;10.020;2023-01-05T00:46:10;6.77;;;1.87;;
26050;SDS011;13825;53.496;10.020;2023-01-05T00:48:37;7.07;;;1.80;;
26050;SDS011;13825;53.496;10.020;2023-01-05T00:51:04;4.43;;;1.40;;
26050;SDS011;13825;53.496;10.020;2023-01-05T00:53:31;7.77;;;1.67;;
26050;SDS011;13825;53.496;10.020;2023-01-05T00:55:58;5.93;;;2.20;;
26050;SDS011;13825;53.496;10.020;2023-01-05T00:58:26;5.67;;;1.80;;
26050;SDS011;13825;53.496;10.020;2023-01-05T01:00:53;3.27;;;1.30;;
26050;SDS011;13825;53.496;10.020;2023-01-05T01:03:20;7.50;;;2.10;;
26050;SDS011;13825;53.496;10.020;2023-01-05T01:05:54;5.13;;;1.43;;
26050;SDS011;13825;53.496;10.020;2023-01-05T01:08:25;2.73;;;1.40;;
26050;SDS011;13825;53.496;10.020;2023-01-05T01:10:52;5.50;;;1.97;;
26050;SDS011;13825;53.496;10.020;2023-01-05T01:13:19;2.73;;;1.17;;
26050;SDS011;13825;53.496;10.020;2023-01-05T01:15:49;3.00;;;1.33;;
26050;SDS011;13825;53.496;10.020;2023-01-05T01:18:16;6.60;;;2.93;;
26050;SDS011;13825;53.496;10.020;2023-01-05T01:20:43;4.03;;;1.57;;
26050;SDS011;13825;53.496;10.020;2023-01-05T01:23:10;7.20;;;1.73;;
26050;SDS011;13825;53.496;10.020;2023-01-05T01:25:37;3.90;;;1.63;;
26050;SDS011;13825;53.496;10.020;2023-01-05T01:28:22;5.33;;;1.73;;
26050;SDS011;13825;53.496;10.020;2023-01-05T01:30:50;6.83;;;1.53;;
26050;SDS011;13825;53.496;10.020;2023-01-05T01:33:17;4.17;;;1.27;;
26050;SDS011;13825;53.496;10.020;2023-01-05T01:35:44;4.20;;;1.60;;
26050;SDS011;13825;53.496;10.020;2023-01-05T01:38:11;4.00;;;1.67;;
26050;SDS011;13825;53.496;10.020;2023-01-05T01:40:39;3.47;;;1.37;;
26050;SDS011;13825;53.496;10.020;2023-01-05T01:43:13;5.30;;;1.40;;
26050;SDS011;13825;53.496;10.020;2023-01-05T01:45:41;4.40;;;1.20;;
26050;SDS011;13825;53.496;10.020;2023-01-05T01:48:09;3.80;;;1.33;;
26050;SDS011;13825;53.496;10.020;2023-01-05T01:50:42;5.93;;;1.90;;
26050;SDS011;13825;53.496;10.020;2023-01-05T01:53:13;2.10;;;1.50;;
26050;SDS011;13825;53.496;10.020;2023-01-05T01:55:43;5.00;;;1.53;;
26050;SDS011;13825;53.496;10.020;2023-01-05T01:58:11;3.80;;;1.50;;
26050;SDS011;13825;53.496;10.020;2023-01-05T02:00:41;5.67;;;1.47;;
26050;SDS011;13825;53.496;10.020;2023-01-05T02:03:13;7.77;;;1.40;;
26050;SDS011;13825;53.496;10.020;2023-01-05T02:05:40;3.63;;;1.40;;
26050;SDS011;13825;53.496;10.020;2023-01-05T02:08:09;8.10;;;1.67;;
26050;SDS011;13825;53.496;10.020;2023-01-05T02:10:48;5.57;;;1.63;;
26050;SDS011;13825;53.496;10.020;2023-01-05T02:13:28;3.97;;;1.40;;
26050;SDS011;13825;53.496;10.020;2023-01-05T02:16:06;5.33;;;1.50;;
26050;SDS011;13825;53.496;10.020;2023-01-05T02:18:59;3.23;;;1.20;;
26050;SDS011;13825;53.496;10.020;2023-01-05T02:21:45;3.60;;;1.63;;
26050;SDS011;13825;53.496;10.020;2023-01-05T02:24:32;6.77;;;1.30;;
26050;SDS011;13825;53.496;10.020;2023-01-05T02:27:35;5.37;;;1.27;;
26050;SDS011;13825;53.496;10.020;2023-01-05T02:30:14;8.33;;;1.60;;
26050;SDS011;13825;53.496;10.020;2023-01-05T02:32:59;2.63;;;1.30;;
26050;SDS011;13825;53.496;10.020;2023-01-05T02:35:39;4.50;;;1.50;;
26050;SDS011;13825;53.496;10.020;2023-01-05T02:38:14;5.83;;;1.47;;
26050;SDS011;13825;53.496;10.020;2023-01-05T02:40:48;4.53;;;1.07;;
26050;SDS011;13825;53.496;10.020;2023-01-05T02:43:20;8.03;;;1.60;;
26050;SDS011;13825;53.496;10.020;2023-01-05T02:45:47;3.70;;;1.63;;
26050;SDS011;13825;53.496;10.020;2023-01-05T02:48:16;5.10;;;1.20;;
26050;SDS011;13825;53.496;10.020;2023-01-05T02:50:44;3.27;;;1.37;;
26050;SDS011;13825;53.496;10.020;2023-01-05T02:53:16;4.27;;;1.30;;
26050;SDS011;13825;53.496;10.020;2023-01-05T02:55:48;3.57;;;1.07;;
26050;SDS011;13825;53.496;10.020;2023-01-05T02:58:20;2.57;;;1.27;;
26050;SDS011;13825;53.496;10.020;2023-01-05T03:00:51;3.53;;;1.40;;
26050;SDS011;13825;53.496;10.020;2023-01-05T03:03:23;3.70;;;1.33;;
26050;SDS011;13825;53.496;10.020;2023-01-05T03:05:53;2.20;;;0.97;;
26050;SDS011;13825;53.496;10.020;2023-01-05T03:08:23;3.80;;;1.10;;
26050;SDS011;13825;53.496;10.020;2023-01-05T03:10:56;4.87;;;1.10;;
26050;SDS011;13825;53.496;10.020;2023-01-05T03:13:45;2.47;;;1.20;;
26050;SDS011;13825;53.496;10.020;2023-01-05T03:16:15;2.53;;;0.73;;
26050;SDS011;13825;53.496;10.020;2023-01-05T03:18:50;1.47;;;0.70;;
26050;SDS011;13825;53.496;10.020;2023-01-05T03:21:36;2.77;;;0.90;;
26050;SDS011;13825;53.496;10.020;2023-01-05T03:24:21;4.47;;;1.10;;
26050;SDS011;13825;53.496;10.020;2023-01-05T03:27:05;3.37;;;0.87;;
26050;SDS011;13825;53.496;10.020;2023-01-05T03:29:50;3.67;;;1.23;;
26050;SDS011;13825;53.496;10.020;2023-01-05T03:32:36;3.83;;;0.90;;
26050;SDS011;13825;53.496;10.020;2023-01-05T03:35:29;4.30;;;1.60;;
26050;SDS011;13825;53.496;10.020;2023-01-05T03:38:01;6.73;;;1.00;;
26050;SDS011;13825;53.496;10.020;2023-01-05T03:40:35;1.17;;;0.80;;
26050;SDS011;13825;53.496;10.020;2023-01-05T03:43:04;4.63;;;1.17;;
26050;SDS011;13825;53.496;10.020;2023-01-05T03:45:35;1.50;;;0.90;;
26050;SDS011;13825;53.496;10.020;2023-01-05T03:48:04;1.70;;;1.03;;
26050;SDS011;13825;53.496;10.020;2023-01-05T03:53:02;1.40;;;0.70;;
26050;SDS011;13825;53.496;10.020;2023-01-05T03:55:29;7.57;;;1.40;;
26050;SDS011;13825;53.496;10.020;2023-01-05T03:57:56;3.37;;;1.53;;
26050;SDS011;13825;53.496;10.020;2023-01-05T04:00:25;1.23;;;0.90;;
26050;SDS011;13825;53.496;10.020;2023-01-05T04:02:52;4.47;;;1.00;;
26050;SDS011;13825;53.496;10.020;2023-01-05T04:05:19;3.27;;;0.80;;
26050;SDS011;13825;53.496;10.020;2023-01-05T04:07:47;2.93;;;1.37;;
26050;SDS011;13825;53.496;10.020;2023-01-05T04:10:14;1.10;;;0.83;;
26050;SDS011;13825;53.496;10.020;2023-01-05T04:12:42;2.07;;;0.50;;
26050;SDS011;13825;53.496;10.020;2023-01-05T04:15:10;1.33;;;0.83;;
26050;SDS011;13825;53.496;10.020;2023-01-05T04:17:37;1.87;;;1.20;;
26050;SDS011;13825;53.496;10.020;2023-01-05T04:20:04;2.03;;;0.70;;
26050;SDS011;13825;53.496;10.020;2023-01-05T04:22:32;1.60;;;0.83;;
26050;SDS011;13825;53.496;10.020;2023-01-05T04:25:00;2.33;;;0.73;;
26050;SDS011;13825;53.496;10.020;2023-01-05T04:27:28;2.07;;;1.37;;
26050;SDS011;13825;53.496;10.020;2023-01-05T04:29:54;2.97;;;0.90;;
26050;SDS011;13825;53.496;10.020;2023-01-05T04:32:21;1.47;;;0.93;;
26050;SDS011;13825;53.496;10.020;2023-01-05T04:34:48;1.73;;;0.77;;
26050;SDS011;13825;53.496;10.020;2023-01-05T04:37:17;5.63;;;1.00;;
26050;SDS011;13825;53.496;10.020;2023-01-05T04:39:44;2.07;;;0.97;;
26050;SDS011;13825;53.496;10.020;2023-01-05T04:42:12;1.93;;;0.70;;
26050;SDS011;13825;53.496;10.020;2023-01-05T04:44:39;2.07;;;0.77;;
26050;SDS011;13825;53.496;10.020;2023-01-05T04:47:06;2.17;;;0.90;;
26050;SDS011;13825;53.496;10.020;2023-01-05T04:49:33;2.67;;;0.90;;
26050;SDS011;13825;53.496;10.020;2023-01-05T04:52:00;1.27;;;0.90;;
26050;SDS011;13825;53.496;10.020;2023-01-05T04:54:27;4.73;;;0.73;;
26050;SDS011;13825;53.496;10.020;2023-01-05T04:56:54;1.07;;;0.60;;
26050;SDS011;13825;53.496;10.020;2023-01-05T04:59:22;3.60;;;0.80;;
26050;SDS011;13825;53.496;10.020;2023-01-05T05:01:49;3.20;;;1.07;;
26050;SDS011;13825;53.496;10.020;2023-01-05T05:04:16;5.03;;;1.10;;
26050;SDS011;13825;53.496;10.020;2023-01-05T05:06:43;0.80;;;0.80;;
26050;SDS011;13825;53.496;10.020;2023-01-05T05:09:10;1.20;;;0.80;;
26050;SDS011;13825;53.496;10.020;2023-01-05T05:11:37;2.33;;;1.00;;
26050;SDS011;13825;53.496;10.020;2023-01-05T05:14:04;3.63;;;1.10;;
26050;SDS011;13825;53.496;10.020;2023-01-05T05:16:32;4.07;;;1.00;;
26050;SDS011;13825;53.496;10.020;2023-01-05T05:18:59;1.40;;;0.83;;
26050;SDS011;13825;53.496;10.020;2023-01-05T05:21:26;2.63;;;0.90;;
26050;SDS011;13825;53.496;10.020;2023-01-05T05:23:53;1.60;;;1.10;;
26050;SDS011;13825;53.496;10.020;2023-01-05T05:26:20;0.63;;;0.50;;
26050;SDS011;13825;53.496;10.020;2023-01-05T05:28:47;2.87;;;0.87;;
26050;SDS011;13825;53.496;10.020;2023-01-05T05:31:14;2.17;;;0.80;;
26050;SDS011;13825;53.496;10.020;2023-01-05T05:33:54;1.33;;;0.70;;
26050;SDS011;13825;53.496;10.020;2023-01-05T05:36:23;4.17;;;0.70;;
26050;SDS011;13825;53.496;10.020;2023-01-05T05:38:50;6.07;;;0.70;;
26050;SDS011;13825;53.496;10.020;2023-01-05T05:41:17;6.57;;;0.83;;
26050;SDS011;13825;53.496;10.020;2023-01-05T05:43:44;3.07;;;1.00;;
26050;SDS011;13825;53.496;10.020;2023-01-05T05:46:11;2.57;;;1.00;;
26050;SDS011;13825;53.496;10.020;2023-01-05T05:48:38;7.17;;;1.47;;
26050;SDS011;13825;53.496;10.020;2023-01-05T05:51:06;3.30;;;1.00;;
26050;SDS011;13825;53.496;10.020;2023-01-05T05:53:35;5.50;;;1.40;;
26050;SDS011;13825;53.496;10.020;2023-01-05T05:56:01;5.20;;;0.90;;
26050;SDS011;13825;53.496;10.020;2023-01-05T05:58:29;6.67;;;1.10;;
26050;SDS011;13825;53.496;10.020;2023-01-05T06:00:56;4.90;;;1.17;;
26050;SDS011;13825;53.496;10.020;2023-01-05T06:03:24;1.23;;;1.00;;
26050;SDS011;13825;53.496;10.020;2023-01-05T06:05:51;3.73;;;1.37;;
26050;SDS011;13825;53.496;10.020;2023-01-05T06:08:19;4.20;;;1.13;;
26050;SDS011;13825;53.496;10.020;2023-01-05T06:10:48;2.53;;;1.00;;
26050;SDS011;13825;53.496;10.020;2023-01-05T06:13:15;5.07;;;1.40;;
26050;SDS011;13825;53.496;10.020;2023-01-05T06:15:42;5.60;;;1.10;;
26050;SDS011;13825;53.496;10.020;2023-01-05T06:18:09;4.73;;;1.33;;
26050;SDS011;13825;53.496;10.020;2023-01-05T06:20:36;6.70;;;1.73;;
26050;SDS011;13825;53.496;10.020;2023-01-05T06:23:03;2.30;;;0.83;;
26050;SDS011;13825;53.496;10.020;2023-01-05T06:25:33;6.43;;;1.10;;
26050;SDS011;13825;53.496;10.020;2023-01-05T06:28:00;4.17;;;1.37;;
26050;SDS011;13825;53.496;10.020;2023-01-05T06:30:27;6.97;;;1.70;;
26050;SDS011;13825;53.496;10.020;2023-01-05T06:32:55;6.67;;;1.60;;
26050;SDS011;13825;53.496;10.020;2023-01-05T06:35:22;4.10;;;1.17;;
26050;SDS011;13825;53.496;10.020;2023-01-05T06:37:49;5.23;;;1.30;;
26050;SDS011;13825;53.496;10.020;2023-01-05T06:40:16;7.13;;;1.67;;
26050;SDS011;13825;53.496;10.020;2023-01-05T06:42:44;3.80;;;1.50;;
26050;SDS011;13825;53.496;10.020;2023-01-05T06:45:12;6.10;;;1.23;;
26050;SDS011;13825;53.496;10.020;2023-01-05T06:47:46;4.77;;;1.30;;
26050;SDS011;13825;53.496;10.020;2023-01-05T06:50:13;8.63;;;1.37;;
26050;SDS011;13825;53.496;10.020;2023-01-05T06:52:40;6.03;;;1.43;;
26050;SDS011;13825;53.496;10.020;2023-01-05T06:55:09;7.60;;;1.17;;
26050;SDS011;13825;53.496;10.020;2023-01-05T06:57:37;6.37;;;1.90;;
26050;SDS011;13825;53.496;10.020;2023-01-05T07:00:07;4.53;;;1.30;;
26050;SDS011;13825;53.496;10.020;2023-01-05T07:02:35;7.50;;;1.57;;
26050;SDS011;13825;53.496;10.020;2023-01-05T07:05:03;5.83;;;1.40;;
26050;SDS011;13825;53.496;10.020;2023-01-05T07:07:30;10.33;;;1.50;;
26050;SDS011;13825;53.496;10.020;2023-01-05T07:09:57;11.10;;;1.77;;
26050;SDS011;13825;53.496;10.020;2023-01-05T07:12:24;7.60;;;1.70;;
26050;SDS011;13825;53.496;10.020;2023-01-05T07:14:51;5.07;;;1.37;;
26050;SDS011;13825;53.496;10.020;2023-01-05T07:17:20;6.33;;;1.30;;
26050;SDS011;13825;53.496;10.020;2023-01-05T07:19:47;8.03;;;2.23;;
26050;SDS011;13825;53.496;10.020;2023-01-05T07:22:13;5.20;;;1.50;;
26050;SDS011;13825;53.496;10.020;2023-01-05T07:24:40;5.90;;;1.20;;
26050;SDS011;13825;53.496;10.020;2023-01-05T07:27:07;4.90;;;1.63;;
26050;SDS011;13825;53.496;10.020;2023-01-05T07:29:34;7.67;;;2.10;;
26050;SDS011;13825;53.496;10.020;2023-01-05T07:32:01;6.30;;;1.20;;
26050;SDS011;13825;53.496;10.020;2023-01-05T07:34:30;5.53;;;1.60;;
26050;SDS011;13825;53.496;10.020;2023-01-05T07:36:57;7.50;;;2.07;;
26050;SDS011;13825;53.496;10.020;2023-01-05T07:39:24;4.63;;;1.30;;
26050;SDS011;13825;53.496;10.020;2023-01-05T07:41:51;5.50;;;1.70;;
26050;SDS011;13825;53.496;10.020;2023-01-05T07:44:18;4.67;;;1.30;;
26050;SDS011;13825;53.496;10.020;2023-01-05T07:46:45;10.63;;;2.10;;
26050;SDS011;13825;53.496;10.020;2023-01-05T07:49:12;6.83;;;1.53;;
26050;SDS011;13825;53.496;10.020;2023-01-05T07:51:41;6.30;;;1.13;;
26050;SDS011;13825;53.496;10.020;2023-01-05T07:54:08;7.43;;;1.80;;
26050;SDS011;13825;53.496;10.020;2023-01-05T07:56:35;4.40;;;1.70;;
26050;SDS011;13825;53.496;10.020;2023-01-05T07:59:02;5.73;;;1.43;;
26050;SDS011;13825;53.496;10.020;2023-01-05T08:01:28;7.57;;;1.53;;
26050;SDS011;13825;53.496;10.020;2023-01-05T08:03:55;5.27;;;1.73;;
26050;SDS011;13825;53.496;10.020;2023-01-05T08:06:22;8.03;;;2.57;;
26050;SDS011;13825;53.496;10.020;2023-01-05T08:08:51;5.87;;;1.50;;
26050;SDS011;13825;53.496;10.020;2023-01-05T08:11:19;5.30;;;1.33;;
26050;SDS011;13825;53.496;10.020;2023-01-05T08:13:46;12.37;;;1.97;;
26050;SDS011;13825;53.496;10.020;2023-01-05T08:16:26;8.73;;;2.63;;
26050;SDS011;13825;53.496;10.020;2023-01-05T08:18:55;6.77;;;1.67;;
26050;SDS011;13825;53.496;10.020;2023-01-05T08:21:22;8.73;;;1.87;;
26050;SDS011;13825;53.496;10.020;2023-01-05T08:23:50;7.23;;;1.70;;
26050;SDS011;13825;53.496;10.020;2023-01-05T08:26:19;5.73;;;1.43;;
26050;SDS011;13825;53.496;10.020;2023-01-05T08:28:48;8.83;;;2.17;;
26050;SDS011;13825;53.496;10.020;2023-01-05T08:31:16;4.00;;;1.57;;
26050;SDS011;13825;53.496;10.020;2023-01-05T08:33:44;10.13;;;2.63;;
26050;SDS011;13825;53.496;10.020;2023-01-05T08:36:11;4.70;;;2.10;;
26050;SDS011;13825;53.496;10.020;2023-01-05T08:38:39;7.10;;;1.80;;
26050;SDS011;13825;53.496;10.020;2023-01-05T08:41:15;8.90;;;2.13;;
26050;SDS011;13825;53.496;10.020;2023-01-05T08:43:42;9.73;;;2.40;;
26050;SDS011;13825;53.496;10.020;2023-01-05T08:46:09;6.40;;;1.83;;
26050;SDS011;13825;53.496;10.020;2023-01-05T08:48:36;8.60;;;1.93;;
26050;SDS011;13825;53.496;10.020;2023-01-05T08:51:03;6.63;;;2.00;;
26050;SDS011;13825;53.496;10.020;2023-01-05T08:53:31;5.10;;;1.60;;
26050;SDS011;13825;53.496;10.020;2023-01-05T08:55:59;6.07;;;1.60;;
26050;SDS011;13825;53.496;10.020;2023-01-05T08:58:28;7.07;;;1.83;;
26050;SDS011;13825;53.496;10.020;2023-01-05T09:00:55;6.03;;;1.60;;
26050;SDS011;13825;53.496;10.020;2023-01-05T09:03:22;7.77;;;2.20;;
26050;SDS011;13825;53.496;10.020;2023-01-05T09:05:51;8.60;;;1.50;;
26050;SDS011;13825;53.496;10.020;2023-01-05T09:08:19;10.23;;;2.10;;
26050;SDS011;13825;53.496;10.020;2023-01-05T09:10:45;8.20;;;1.93;;
26050;SDS011;13825;53.496;10.020;2023-01-05T09:13:12;8.37;;;1.57;;
26050;SDS011;13825;53.496;10.020;2023-01-05T09:15:41;10.27;;;1.90;;
26050;SDS011;13825;53.496;10.020;2023-01-05T09:18:08;6.67;;;2.03;;
26050;SDS011;13825;53.496;10.020;2023-01-05T09:20:35;7.23;;;1.83;;
26050;SDS011;13825;53.496;10.020;2023-01-05T09:23:02;7.20;;;2.37;;
26050;SDS011;13825;53.496;10.020;2023-01-05T09:25:29;4.80;;;1.73;;
26050;SDS011;13825;53.496;10.020;2023-01-05T09:27:55;6.47;;;2.27;;
26050;SDS011;13825;53.496;10.020;2023-01-05T09:30:22;7.93;;;1.97;;
26050;SDS011;13825;53.496;10.020;2023-01-05T09:32:50;5.83;;;1.80;;
26050;SDS011;13825;53.496;10.020;2023-01-05T09:35:17;3.13;;;1.30;;
26050;SDS011;13825;53.496;10.020;2023-01-05T09:37:44;5.13;;;1.37;;
26050;SDS011;13825;53.496;10.020;2023-01-05T09:40:11;3.93;;;1.47;;
26050;SDS011;13825;53.496;10.020;2023-01-05T09:42:45;7.57;;;1.93;;
26050;SDS011;13825;53.496;10.020;2023-01-05T09:45:22;6.13;;;1.70;;
26050;SDS011;13825;53.496;10.020;2023-01-05T09:47:56;8.10;;;2.10;;
26050;SDS011;13825;53.496;10.020;2023-01-05T09:50:25;5.67;;;1.60;;
26050;SDS011;13825;53.496;10.020;2023-01-05T09:52:55;7.97;;;1.83;;
26050;SDS011;13825;53.496;10.020;2023-01-05T09:55:25;6.13;;;2.20;;
26050;SDS011;13825;53.496;10.020;2023-01-05T09:58:06;10.30;;;2.53;;
26050;SDS011;13825;53.496;10.020;2023-01-05T10:00:39;6.40;;;2.30;;
26050;SDS011;13825;53.496;10.020;2023-01-05T10:03:12;8.70;;;2.60;;
26050;SDS011;13825;53.496;10.020;2023-01-05T10:05:46;9.40;;;2.07;;
26050;SDS011;13825;53.496;10.020;2023-01-05T10:08:17;7.40;;;2.10;;
26050;SDS011;13825;53.496;10.020;2023-01-05T10:10:53;4.63;;;2.20;;
26050;SDS011;13825;53.496;10.020;2023-01-05T10:13:44;9.77;;;2.50;;
26050;SDS011;13825;53.496;10.020;2023-01-05T10:16:22;11.83;;;2.37;;
26050;SDS011;13825;53.496;10.020;2023-01-05T10:18:50;7.93;;;2.40;;
26050;SDS011;13825;53.496;10.020;2023-01-05T10:21:20;8.03;;;1.87;;
26050;SDS011;13825;53.496;10.020;2023-01-05T10:24:02;5.77;;;2.30;;
26050;SDS011;13825;53.496;10.020;2023-01-05T10:26:41;3.67;;;1.93;;
26050;SDS011;13825;53.496;10.020;2023-01-05T10:29:14;8.90;;;2.13;;
26050;SDS011;13825;53.496;10.020;2023-01-05T10:31:49;6.83;;;2.33;;
26050;SDS011;13825;53.496;10.020;2023-01-05T10:34:35;4.63;;;2.00;;
26050;SDS011;13825;53.496;10.020;2023-01-05T10:40:19;4.60;;;1.73;;
26050;SDS011;13825;53.496;10.020;2023-01-05T10:42:59;4.33;;;2.17;;
26050;SDS011;13825;53.496;10.020;2023-01-05T10:45:47;11.27;;;2.60;;
26050;SDS011;13825;53.496;10.020;2023-01-05T10:48:18;9.50;;;2.77;;
26050;SDS011;13825;53.496;10.020;2023-01-05T10:50:51;9.60;;;2.63;;
26050;SDS011;13825;53.496;10.020;2023-01-05T10:53:29;8.27;;;2.20;;
26050;SDS011;13825;53.496;10.020;2023-01-05T10:56:06;10.93;;;2.20;;
26050;SDS011;13825;53.496;10.020;2023-01-05T10:59:05;5.77;;;2.03;;
26050;SDS011;13825;53.496;10.020;2023-01-05T11:01:45;6.77;;;2.20;;
26050;SDS011;13825;53.496;10.020;2023-01-05T11:04:25;10.27;;;2.40;;
26050;SDS011;13825;53.496;10.020;2023-01-05T11:07:02;7.70;;;1.67;;
26050;SDS011;13825;53.496;10.020;2023-01-05T11:09:52;8.10;;;2.00;;
26050;SDS011;13825;53.496;10.020;2023-01-05T11:12:24;10.97;;;2.03;;
26050;SDS011;13825;53.496;10.020;2023-01-05T11:15:00;9.43;;;2.50;;
26050;SDS011;13825;53.496;10.020;2023-01-05T11:17:45;12.47;;;2.47;;
26050;SDS011;13825;53.496;10.020;2023-01-05T11:20:16;5.87;;;2.10;;
26050;SDS011;13825;53.496;10.020;2023-01-05T11:22:52;11.37;;;2.37;;
26050;SDS011;13825;53.496;10.020;2023-01-05T11:25:22;8.70;;;2.33;;
26050;SDS011;13825;53.496;10.020;2023-01-05T11:28:03;5.47;;;2.63;;
26050;SDS011;13825;53.496;10.020;2023-01-05T11:30:45;7.83;;;2.27;;
26050;SDS011;13825;53.496;10.020;2023-01-05T11:33:25;6.60;;;1.80;;
26050;SDS011;13825;53.496;10.020;2023-01-05T11:36:09;9.33;;;1.80;;
26050;SDS011;13825;53.496;10.020;2023-01-05T11:39:11;6.13;;;1.90;;
26050;SDS011;13825;53.496;10.020;2023-01-05T11:42:10;5.90;;;1.60;;
26050;SDS011;13825;53.496;10.020;2023-01-05T11:44:42;11.73;;;1.90;;
26050;SDS011;13825;53.496;10.020;2023-01-05T11:50:13;10.03;;;1.87;;
26050;SDS011;13825;53.496;10.020;2023-01-05T11:52:46;3.73;;;1.80;;
26050;SDS011;13825;53.496;10.020;2023-01-05T11:55:22;6.07;;;1.90;;
26050;SDS011;13825;53.496;10.020;2023-01-05T11:57:56;6.73;;;1.90;;
26050;SDS011;13825;53.496;10.020;2023-01-05T12:00:43;12.57;;;2.43;;
26050;SDS011;13825;53.496;10.020;2023-01-05T12:03:36;10.23;;;2.33;;
26050;SDS011;13825;53.496;10.020;2023-01-05T12:06:33;11.53;;;2.00;;
26050;SDS011;13825;53.496;10.020;2023-01-05T12:09:21;3.90;;;1.67;;
26050;SDS011;13825;53.496;10.020;2023-01-05T12:11:54;6.17;;;1.77;;
26050;SDS011;13825;53.496;10.020;2023-01-05T12:14:36;5.30;;;2.00;;
26050;SDS011;13825;53.496;10.020;2023-01-05T12:17:13;9.60;;;2.87;;
26050;SDS011;13825;53.496;10.020;2023-01-05T12:19:47;9.60;;;2.50;;
26050;SDS011;13825;53.496;10.020;2023-01-05T12:25:41;13.17;;;2.40;;
26050;SDS011;13825;53.496;10.020;2023-01-05T12:28:21;8.30;;;2.50;;
26050;SDS011;13825;53.496;10.020;2023-01-05T12:30:57;11.27;;;2.37;;
26050;SDS011;13825;53.496;10.020;2023-01-05T12:33:52;7.40;;;1.87;;
26050;SDS011;13825;53.496;10.020;2023-01-05T12:36:34;8.93;;;1.80;;
26050;SDS011;13825;53.496;10.020;2023-01-05T12:39:16;4.93;;;2.10;;
26050;SDS011;13825;53.496;10.020;2023-01-05T12:42:11;7.10;;;1.70;;
26050;SDS011;13825;53.496;10.020;2023-01-05T12:48:03;7.87;;;1.63;;
26050;SDS011;13825;53.496;10.020;2023-01-05T12:50:34;7.20;;;1.70;;
26050;SDS011;13825;53.496;10.020;2023-01-05T12:53:11;8.73;;;1.53;;
26050;SDS011;13825;53.496;10.020;2023-01-05T12:55:44;4.77;;;1.43;;
26050;SDS011;13825;53.496;10.020;2023-01-05T12:58:17;4.07;;;1.33;;
26050;SDS011;13825;53.496;10.020;2023-01-05T13:03:54;10.67;;;3.10;;
26050;SDS011;13825;53.496;10.020;2023-01-05T13:06:24;9.73;;;1.50;;
26050;SDS011;13825;53.496;10.020;2023-01-05T13:08:56;6.23;;;1.80;;
26050;SDS011;13825;53.496;10.020;2023-01-05T13:11:28;7.63;;;1.90;;
26050;SDS011;13825;53.496;10.020;2023-01-05T13:13:59;6.67;;;2.03;;
26050;SDS011;13825;53.496;10.020;2023-01-05T13:16:33;5.80;;;1.33;;
26050;SDS011;13825;53.496;10.020;2023-01-05T13:19:09;5.40;;;1.77;;
26050;SDS011;13825;53.496;10.020;2023-01-05T13:21:47;10.13;;;1.70;;
26050;SDS011;13825;53.496;10.020;2023-01-05T13:24:16;4.10;;;1.33;;
26050;SDS011;13825;53.496;10.020;2023-01-05T13:26:52;4.00;;;1.70;;
26050;SDS011;13825;53.496;10.020;2023-01-05T13:29:20;7.90;;;2.63;;
26050;SDS011;13825;53.496;10.020;2023-01-05T13:32:13;8.60;;;1.97;;
26050;SDS011;13825;53.496;10.020;2023-01-05T13:35:03;7.37;;;1.47;;
26050;SDS011;13825;53.496;10.020;2023-01-05T13:38:06;6.80;;;1.43;;
26050;SDS011;13825;53.496;10.020;2023-01-05T13:41:08;5.73;;;1.50;;
26050;SDS011;13825;53.496;10.020;2023-01-05T13:44:09;9.63;;;1.30;;
26050;SDS011;13825;53.496;10.020;2023-01-05T13:46:52;4.70;;;1.30;;
26050;SDS011;13825;53.496;10.020;2023-01-05T13:49:35;2.47;;;0.80;;
26050;SDS011;13825;53.496;10.020;2023-01-05T13:52:18;9.17;;;2.27;;
26050;SDS011;13825;53.496;10.020;2023-01-05T13:54:55;2.33;;;1.27;;
26050;SDS011;13825;53.496;10.020;2023-01-05T13:57:37;4.13;;;1.53;;
26050;SDS011;13825;53.496;10.020;2023-01-05T14:00:19;3.03;;;1.27;;
26050;SDS011;13825;53.496;10.020;2023-01-05T14:02:55;3.13;;;1.00;;
26050;SDS011;13825;53.496;10.020;2023-01-05T14:05:46;3.53;;;1.20;;
26050;SDS011;13825;53.496;10.020;2023-01-05T14:08:17;11.37;;;2.30;;
26050;SDS011;13825;53.496;10.020;2023-01-05T14:13:44;5.07;;;1.40;;
26050;SDS011;13825;53.496;10.020;2023-01-05T14:19:13;4.00;;;1.80;;
26050;SDS011;13825;53.496;10.020;2023-01-05T14:22:00;5.70;;;1.50;;
26050;SDS011;13825;53.496;10.020;2023-01-05T14:24:31;6.03;;;1.70;;
26050;SDS011;13825;53.496;10.020;2023-01-05T14:27:02;3.53;;;1.40;;
26050;SDS011;13825;53.496;10.020;2023-01-05T14:32:25;6.53;;;1.60;;
26050;SDS011;13825;53.496;10.020;2023-01-05T14:34:56;7.27;;;1.40;;
26050;SDS011;13825;53.496;10.020;2023-01-05T14:37:31;4.93;;;1.50;;
26050;SDS011;13825;53.496;10.020;2023-01-05T14:40:20;6.27;;;1.47;;
26050;SDS011;13825;53.496;10.020;2023-01-05T14:43:27;5.90;;;1.40;;
26050;SDS011;13825;53.496;10.020;2023-01-05T14:46:06;5.93;;;1.20;;
26050;SDS011;13825;53.496;10.020;2023-01-05T14:48:44;5.47;;;1.50;;
26050;SDS011;13825;53.496;10.020;2023-01-05T14:51:25;3.73;;;1.60;;
26050;SDS011;13825;53.496;10.020;2023-01-05T14:54:03;3.67;;;1.30;;
26050;SDS011;13825;53.496;10.020;2023-01-05T15:00:10;5.67;;;1.80;;
26050;SDS011;13825;53.496;10.020;2023-01-05T15:02:42;8.13;;;1.80;;
26050;SDS011;13825;53.496;10.020;2023-01-05T15:05:16;6.03;;;1.50;;
26050;SDS011;13825;53.496;10.020;2023-01-05T15:07:45;5.93;;;1.13;;
26050;SDS011;13825;53.496;10.020;2023-01-05T15:13:58;7.90;;;1.77;;
26050;SDS011;13825;53.496;10.020;2023-01-05T15:19:52;3.87;;;1.33;;
26050;SDS011;13825;53.496;10.020;2023-01-05T15:22:47;4.80;;;1.67;;
26050;SDS011;13825;53.496;10.020;2023-01-05T15:25:37;3.60;;;1.30;;
26050;SDS011;13825;53.496;10.020;2023-01-05T15:31:34;4.27;;;1.33;;
26050;SDS011;13825;53.496;10.020;2023-01-05T15:34:05;5.90;;;1.60;;
26050;SDS011;13825;53.496;10.020;2023-01-05T15:36:42;4.37;;;1.40;;
26050;SDS011;13825;53.496;10.020;2023-01-05T15:39:21;1.77;;;1.20;;
26050;SDS011;13825;53.496;10.020;2023-01-05T15:41:54;6.73;;;1.87;;
26050;SDS011;13825;53.496;10.020;2023-01-05T15:44:23;4.03;;;1.30;;
26050;SDS011;13825;53.496;10.020;2023-01-05T15:47:14;5.57;;;1.90;;